Time;durP1;ratioP1;P1;durP2;ratioP2;P2;SDS_P1;SDS_P2;PMS_P1;PMS_P2;Temp;Humidity;BMP_temperature;BMP_pressure;BME280_temperature;BME280_humidity;BME280_pressure;Samples;Min_cycle;Max_cycle;Signal;HPM_P1;HPM_P2
2023/01/29 00:02:03;;;;;;;24.30;12.10;;;;;;;0.33;96.32;100391.98;107519;1264;60512;-65
2023/01/29 00:04:30;;;;;;;25.70;11.70;;;;;;;0.24;84.74;100394.32;107472;1260;72972;-65
2023/01/29 00:06:58;;;;;;;29.80;13.10;;;;;;;0.25;83.96;100393.97;107459;1261;71042;-65
2023/01/29 00:09:24;;;;;;;25.90;12.10;;;;;;;0.35;83.15;100396.66;107475;1260;70625;-66
2023/01/29 00:11:51;;;;;;;31.20;13.30;;;;;;;0.32;82.97;100397.16;107574;1260;63248;-64
2023/01/29 00:14:18;;;;;;;26.80;12.50;;;;;;;0.30;83.02;100403.35;107424;1260;61074;-62
2023/01/29 00:16:45;;;;;;;32.80;14.10;;;;;;;0.15;82.75;100400.62;107449;1261;74108;-64
2023/01/29 00:19:12;;;;;;;32.10;13.90;;;;;;;0.11;82.59;100400.75;107499;1263;70413;-64
2023/01/29 00:21:38;;;;;;;33.80;15.30;;;;;;;-0.11;83.42;100401.55;107437;1262;73368;-63
2023/01/29 00:24:05;;;;;;;32.60;13.80;;;;;;;-0.07;83.14;100401.60;107408;1260;59506;-66
2023/01/29 00:26:32;;;;;;;31.70;13.80;;;;;;;-0.22;83.21;100403.86;107495;1264;61223;-64
2023/01/29 00:29:02;;;;;;;32.20;13.20;;;;;;;-0.25;84.04;100398.83;107456;1264;73041;-65
2023/01/29 00:31:29;;;;;;;32.00;15.00;;;;;;;-0.05;83.40;100400.41;107471;1262;70966;-65
2023/01/29 00:33:56;;;;;;;35.50;16.10;;;;;;;-0.16;83.60;100400.13;107468;1265;73224;-64
2023/01/29 00:36:23;;;;;;;28.80;14.30;;;;;;;0.14;82.78;100400.61;107491;1265;62546;-65
2023/01/29 00:38:57;;;;;;;32.30;13.50;;;;;;;0.24;81.97;100402.60;107511;1265;60381;-66
2023/01/29 00:47:00;;;;;;;28.40;13.30;;;;;;;0.40;80.42;100408.96;107460;1265;73992;-65
2023/01/29 00:49:26;;;;;;;30.20;13.90;;;;;;;0.43;80.34;100405.89;107318;1260;63061;-65
2023/01/29 00:54:38;;;;;;;29.60;13.50;;;;;;;0.39;80.19;100401.88;107439;1261;72625;-65
2023/01/29 00:57:05;;;;;;;25.50;13.20;;;;;;;0.41;80.38;100402.41;107520;1262;71546;-64
2023/01/29 00:59:32;;;;;;;27.80;11.90;;;;;;;0.38;80.40;100401.16;107375;1260;72841;-64
2023/01/29 01:04:45;;;;;;;35.50;13.80;;;;;;;0.43;79.62;100402.42;107548;1260;61130;-64
2023/01/29 01:07:12;;;;;;;34.30;14.20;;;;;;;0.34;80.15;100399.75;107550;1263;74661;-65
2023/01/29 01:12:25;;;;;;;28.60;13.00;;;;;;;0.46;79.19;100391.23;107634;1260;73088;-64
2023/01/29 01:14:52;;;;;;;27.10;11.70;;;;;;;0.47;79.20;100393.48;107635;1261;62030;-65
2023/01/29 01:17:19;;;;;;;31.90;12.50;;;;;;;0.65;78.82;100394.13;107613;1260;61518;-64
2023/01/29 01:19:47;;;;;;;27.00;13.40;;;;;;;0.62;78.96;100397.75;107692;1261;72196;-64
2023/01/29 01:22:13;;;;;;;23.80;10.90;;;;;;;0.66;79.05;100401.58;107629;1259;70606;-66
2023/01/29 01:24:40;;;;;;;29.10;13.30;;;;;;;0.72;79.21;100401.95;107604;1263;72860;-64
2023/01/29 01:27:07;;;;;;;29.70;13.50;;;;;;;0.49;79.55;100405.08;107552;1260;63285;-64
2023/01/29 01:29:35;;;;;;;28.80;13.70;;;;;;;0.57;79.41;100405.48;107543;1264;60952;-63
2023/01/29 01:32:02;;;;;;;36.80;16.60;;;;;;;0.54;79.29;100402.52;107595;1263;72489;-65
2023/01/29 01:34:30;;;;;;;29.40;13.90;;;;;;;0.24;80.12;100400.88;107602;1261;69943;-65
2023/01/29 01:36:58;;;;;;;25.60;11.30;;;;;;;0.37;79.99;100400.98;107574;1259;72926;-65
2023/01/29 01:39:25;;;;;;;30.60;14.30;;;;;;;0.29;79.63;100402.30;107547;1260;62965;-65
2023/01/29 01:41:55;;;;;;;26.10;11.70;;;;;;;0.12;80.25;100403.17;107551;1263;61183;-65
2023/01/29 01:44:50;;;;;;;29.00;14.10;;;;;;;0.19;79.61;100401.17;107628;1260;74314;-65
2023/01/29 01:47:43;;;;;;;32.00;13.70;;;;;;;0.08;79.52;100402.61;107605;1263;70361;-63
2023/01/29 01:50:15;;;;;;;28.30;12.80;;;;;;;-0.06;79.41;100404.89;107441;1261;72523;-66
2023/01/29 01:52:45;;;;;;;25.70;12.50;;;;;;;-0.14;79.89;100406.86;107511;1260;61057;-63
2023/01/29 05:23:27;;;;;;;51.10;19.50;;;;;;;-4.91;100.00;100417.85;105279;1292;616221;-96
2023/01/29 05:29:11;;;;;;;49.60;19.50;;;;;;;-2.07;100.00;100415.75;108034;1263;60196;-96
2023/01/29 05:31:44;;;;;;;60.80;22.20;;;;;;;-1.69;100.00;100419.70;108192;1264;70984;-95
2023/01/29 05:34:39;;;;;;;54.30;21.00;;;;;;;-1.30;100.00;100417.58;108363;1260;69115;-93
2023/01/29 05:37:12;;;;;;;54.20;21.80;;;;;;;-1.15;100.00;100419.36;107416;1247;2567462;-64
2023/01/29 05:39:39;;;;;;;52.40;21.20;;;;;;;-1.13;100.00;100420.27;107966;1254;62903;-63
2023/01/29 05:42:06;;;;;;;51.30;20.80;;;;;;;-0.80;100.00;100417.11;108007;1254;59345;-62
2023/01/29 05:44:33;;;;;;;52.50;21.10;;;;;;;-0.61;100.00;100417.17;108036;1255;73176;-64
2023/01/29 05:47:01;;;;;;;49.90;20.10;;;;;;;-0.67;100.00;100420.05;108071;1256;71422;-61
2023/01/29 05:49:28;;;;;;;46.40;19.20;;;;;;;-0.52;100.00;100421.95;108020;1257;73291;-64
2023/01/29 05:51:55;;;;;;;52.80;20.80;;;;;;;-0.54;100.00;100424.69;108044;1254;62210;-62
2023/01/29 05:54:22;;;;;;;51.20;20.20;;;;;;;-0.49;100.00;100426.48;108042;1255;61650;-63
2023/01/29 05:56:48;;;;;;;47.80;20.30;;;;;;;-0.31;100.00;100424.11;107981;1254;73163;-65
2023/01/29 05:59:15;;;;;;;49.30;21.30;;;;;;;-0.59;100.00;100424.45;108027;1256;71048;-65
2023/01/29 06:01:42;;;;;;;44.10;18.60;;;;;;;-0.63;100.00;100426.48;108137;1253;72887;-65
2023/01/29 06:04:09;;;;;;;38.20;16.70;;;;;;;-0.55;100.00;100428.48;108094;1253;61975;-65
2023/01/29 06:06:39;;;;;;;46.00;18.70;;;;;;;-0.49;100.00;100426.83;108162;1258;61234;-65
2023/01/29 06:09:06;;;;;;;40.90;17.90;;;;;;;-0.55;100.00;100430.54;108087;1253;59619;-65
2023/01/29 06:11:33;;;;;;;50.50;20.50;;;;;;;-0.45;100.00;100429.64;108085;1253;70623;-65
2023/01/29 06:14:00;;;;;;;44.80;18.50;;;;;;;-0.62;100.00;100430.46;108058;1253;73712;-65
2023/01/29 06:16:27;;;;;;;39.40;17.80;;;;;;;-0.67;100.00;100432.97;108048;1254;63204;-64
2023/01/29 06:18:54;;;;;;;44.90;20.00;;;;;;;-0.60;100.00;100429.11;108078;1253;61047;-64
2023/01/29 06:21:21;;;;;;;43.90;19.30;;;;;;;-0.50;100.00;100427.48;108088;1253;74249;-65
2023/01/29 06:23:48;;;;;;;51.10;19.90;;;;;;;-0.31;100.00;100425.67;108064;1253;72198;-65
2023/01/29 06:26:15;;;;;;;41.50;18.00;;;;;;;-0.15;100.00;100426.19;107996;1254;73861;-65
2023/01/29 06:28:42;;;;;;;44.20;18.80;;;;;;;-0.07;100.00;100431.99;108012;1253;61099;-65
2023/01/29 06:31:09;;;;;;;47.10;19.50;;;;;;;0.20;100.00;100432.09;108075;1254;60238;-65
2023/01/29 06:33:55;;;;;;;48.40;19.80;;;;;;;0.41;100.00;100433.52;108032;1258;71918;-65
2023/01/29 06:36:22;;;;;;;52.50;20.80;;;;;;;0.35;100.00;100431.71;107964;1254;71559;-65
2023/01/29 06:38:49;;;;;;;53.90;20.70;;;;;;;0.35;100.00;100434.31;108083;1258;72910;-65
2023/01/29 06:41:17;;;;;;;51.20;20.40;;;;;;;0.43;100.00;100432.66;107992;1254;62145;-65
2023/01/29 06:43:44;;;;;;;48.70;20.10;;;;;;;0.71;100.00;100433.76;108037;1257;60196;-65
2023/01/29 06:46:11;;;;;;;57.40;22.60;;;;;;;1.04;100.00;100434.70;107992;1256;73085;-65
2023/01/29 06:48:38;;;;;;;52.10;21.10;;;;;;;1.28;100.00;100437.09;108025;1254;70109;-65
2023/01/29 06:51:06;;;;;;;47.60;18.80;;;;;;;1.44;100.00;100435.09;107964;1257;72246;-65
2023/01/29 06:53:34;;;;;;;59.30;21.60;;;;;;;1.60;100.00;100435.34;108053;1254;59929;-65
2023/01/29 06:56:00;;;;;;;54.60;21.30;;;;;;;1.68;100.00;100435.20;108057;1254;61042;-65
2023/01/29 06:58:27;;;;;;;46.90;21.30;;;;;;;1.79;100.00;100436.63;108016;1256;73924;-65
2023/01/29 07:01:04;;;;;;;53.80;21.80;;;;;;;1.80;100.00;100432.48;108000;1257;71564;-65
2023/01/29 07:03:32;;;;;;;55.40;22.80;;;;;;;1.88;100.00;100434.59;107860;1257;73888;-65
2023/01/29 07:05:59;;;;;;;47.00;19.60;;;;;;;1.89;100.00;100431.30;107896;1259;59511;-65
2023/01/29 07:08:25;;;;;;;59.60;23.80;;;;;;;2.10;100.00;100429.80;107868;1256;60788;-64
2023/01/29 07:10:52;;;;;;;57.80;23.70;;;;;;;2.21;100.00;100429.30;107904;1255;74550;-65
2023/01/29 07:13:19;;;;;;;43.00;19.40;;;;;;;2.48;100.00;100426.56;107867;1255;70566;-65
2023/01/29 07:15:45;;;;;;;50.30;20.10;;;;;;;2.66;100.00;100421.89;107885;1256;74036;-65
2023/01/29 07:18:13;;;;;;;62.40;24.10;;;;;;;2.68;100.00;100419.29;107866;1256;62168;-65
2023/01/29 07:20:40;;;;;;;55.90;21.80;;;;;;;2.83;100.00;100412.16;107856;1255;61536;-65
2023/01/29 07:23:11;;;;;;;57.10;22.90;;;;;;;3.09;100.00;100414.05;107997;1256;73288;-65
2023/01/29 07:25:38;;;;;;;;;;;;;;;3.22;100.00;100411.41;107950;1256;69414;-65
2023/01/29 07:28:05;;;;;;;49.60;20.90;;;;;;;3.21;100.00;100416.27;107901;1256;72327;-65
2023/01/29 07:30:32;;;;;;;43.50;19.30;;;;;;;3.35;100.00;100420.73;107963;1256;60519;-65
2023/01/29 07:33:07;;;;;;;50.10;22.00;;;;;;;3.51;100.00;100422.95;107886;1255;59731;-65
2023/01/29 07:35:41;;;;;;;47.10;20.90;;;;;;;3.75;100.00;100425.46;107899;1256;74462;-65
2023/01/29 07:38:08;;;;;;;60.30;23.50;;;;;;;3.78;100.00;100421.80;107928;1256;71214;-65
2023/01/29 07:40:37;;;;;;;67.00;25.80;;;;;;;3.88;100.00;100419.32;107900;1255;72160;-65
2023/01/29 07:43:05;;;;;;;53.80;23.00;;;;;;;3.96;100.00;100413.55;107939;1256;61487;-65
2023/01/29 07:45:34;;;;;;;55.80;24.20;;;;;;;4.15;100.00;100411.18;107981;1256;59114;-65
2023/01/29 07:48:01;;;;;;;57.70;23.70;;;;;;;4.22;100.00;100408.17;107983;1256;72310;-65
2023/01/29 07:50:27;;;;;;;49.90;21.70;;;;;;;4.24;100.00;100410.60;108026;1256;71033;-65
2023/01/29 07:52:54;;;;;;;51.60;22.60;;;;;;;4.50;100.00;100405.72;107946;1256;71804;-65
2023/01/29 07:55:21;;;;;;;48.40;22.80;;;;;;;4.50;100.00;100406.60;107949;1256;62216;-65
2023/01/29 07:57:56;;;;;;;46.10;21.00;;;;;;;4.67;100.00;100406.96;107973;1256;60457;-65
2023/01/29 08:00:23;;;;;;;61.70;25.20;;;;;;;4.70;100.00;100406.42;107963;1257;72274;-65
2023/01/29 08:02:50;;;;;;;51.80;23.20;;;;;;;4.85;100.00;100408.38;107964;1257;70752;-66
2023/01/29 08:05:18;;;;;;;58.30;23.70;;;;;;;5.05;100.00;100414.79;108052;1257;73798;-66
2023/01/29 08:07:45;;;;;;;56.20;24.50;;;;;;;5.19;100.00;100410.14;108018;1257;62324;-65
2023/01/29 08:10:23;;;;;;;46.00;20.80;;;;;;;5.23;95.84;100408.00;107998;1255;61294;-66
2023/01/29 08:12:55;;;;;;;54.00;23.30;;;;;;;5.40;89.42;100412.17;108012;1256;74028;-65
2023/01/29 08:15:22;;;;;;;50.30;22.20;;;;;;;5.57;88.71;100420.34;108056;1255;70683;-66
2023/01/29 08:17:50;;;;;;;54.70;23.90;;;;;;;5.35;89.31;100419.89;108012;1258;73257;-67
2023/01/29 08:20:37;;;;;;;53.70;24.00;;;;;;;5.18;89.64;100419.38;108005;1256;59196;-66
2023/01/29 08:23:07;;;;;;;53.80;22.90;;;;;;;5.26;89.08;100414.94;108042;1254;61236;-66
2023/01/29 08:25:34;;;;;;;49.90;21.60;;;;;;;5.27;88.82;100417.20;107924;1254;73121;-65
2023/01/29 08:28:01;;;;;;;48.80;23.40;;;;;;;5.36;88.20;100420.58;108040;1258;71405;-66
2023/01/29 08:30:29;;;;;;;46.10;20.80;;;;;;;5.26;88.15;100416.86;108021;1255;73480;-66
2023/01/29 08:32:56;;;;;;;51.00;22.80;;;;;;;5.40;87.48;100421.23;108042;1256;62217;-66
2023/01/29 08:35:23;;;;;;;44.50;20.10;;;;;;;5.27;87.39;100422.40;108067;1257;60648;-66
2023/01/29 08:37:54;;;;;;;53.40;22.80;;;;;;;4.85;89.33;100422.29;108080;1255;74232;-65
2023/01/29 08:40:21;;;;;;;57.80;25.60;;;;;;;5.11;89.09;100427.09;108044;1255;70431;-66
2023/01/29 08:42:47;;;;;;;52.40;22.80;;;;;;;5.24;88.17;100426.11;108005;1258;73934;-66
2023/01/29 08:45:14;;;;;;;51.80;23.50;;;;;;;5.37;87.92;100426.14;107996;1254;62565;-66
2023/01/29 08:47:48;;;;;;;54.10;25.70;;;;;;;5.50;87.25;100418.15;107998;1255;60785;-65
2023/01/29 08:50:15;;;;;;;54.40;23.50;;;;;;;5.54;80.27;100412.88;108074;1254;72615;-65
2023/01/29 08:52:43;;;;;;;54.40;25.40;;;;;;;5.55;74.94;100414.61;108026;1258;71131;-66
2023/01/29 08:55:11;;;;;;;60.60;26.90;;;;;;;5.49;73.70;100413.11;108023;1258;73818;-65
2023/01/29 08:57:38;;;;;;;48.10;22.20;;;;;;;5.61;73.08;100415.41;108026;1254;62331;-65
2023/01/29 09:00:06;;;;;;;57.80;25.10;;;;;;;5.53;73.03;100410.98;107965;1259;61484;-64
2023/01/29 09:02:33;;;;;;;53.10;23.40;;;;;;;5.64;72.59;100408.75;108057;1254;72416;-66
2023/01/29 09:05:00;;;;;;;55.70;24.90;;;;;;;5.67;72.84;100403.85;108028;1257;70076;-66
2023/01/29 09:07:28;;;;;;;55.40;25.10;;;;;;;5.93;72.24;100399.69;108037;1255;72891;-66
2023/01/29 09:09:55;;;;;;;43.60;20.20;;;;;;;6.14;71.65;100401.48;108028;1258;62199;-65
2023/01/29 09:12:21;;;;;;;53.50;24.60;;;;;;;6.16;71.36;100400.77;108028;1255;60278;-66
2023/01/29 09:14:48;;;;;;;52.40;24.10;;;;;;;6.22;70.93;100402.25;107984;1257;74194;-66
2023/01/29 09:17:15;;;;;;;51.60;24.20;;;;;;;6.34;70.75;100397.88;108045;1257;71587;-66
2023/01/29 09:19:41;;;;;;;60.20;26.20;;;;;;;6.27;70.77;100395.55;108072;1254;73645;-66
2023/01/29 09:22:08;;;;;;;48.90;23.20;;;;;;;6.15;70.69;100395.90;108024;1258;61442;-66
2023/01/29 09:24:38;;;;;;;56.60;25.50;;;;;;;6.27;70.03;100391.53;107983;1257;61057;-66
2023/01/29 09:27:05;;;;;;;48.80;22.40;;;;;;;6.22;69.65;100388.82;108004;1254;74178;-66
2023/01/29 09:29:32;;;;;;;52.80;21.80;;;;;;;6.49;68.85;100384.73;108060;1254;70530;-66
2023/01/29 09:32:05;;;;;;;51.20;23.80;;;;;;;6.77;67.83;100379.21;108096;1254;73787;-66
2023/01/29 09:34:36;;;;;;;42.80;19.90;;;;;;;6.82;67.21;100378.60;108063;1257;62059;-66
2023/01/29 09:37:03;;;;;;;51.20;22.30;;;;;;;6.85;66.76;100375.39;108093;1257;60614;-66
2023/01/29 09:39:30;;;;;;;48.70;21.70;;;;;;;7.24;65.44;100371.73;107986;1258;75220;-66
2023/01/29 09:42:07;;;;;;;49.00;21.10;;;;;;;7.48;65.02;100368.95;107942;1255;69478;-66
2023/01/29 09:45:02;;;;;;;50.90;22.10;;;;;;;7.35;64.87;100371.85;107849;1259;73718;-66
2023/01/29 09:47:31;;;;;;;50.40;23.20;;;;;;;7.33;64.71;100369.27;107944;1257;61098;-66
2023/01/29 09:50:04;;;;;;;43.80;20.30;;;;;;;7.08;64.71;100372.20;107958;1254;60296;-65
2023/01/29 14:13:10;;;;;;;42.70;21.00;;;;;;;3.03;93.55;100239.00;105670;1282;613262;-65
2023/01/29 14:15:38;;;;;;;36.00;17.40;;;;;;;4.43;89.09;100230.53;107268;1264;107406;-66
2023/01/29 14:18:07;;;;;;;32.50;16.50;;;;;;;4.65;87.12;100226.64;107377;1264;61543;-66
2023/01/29 14:20:47;;;;;;;33.30;17.40;;;;;;;4.82;85.62;100229.58;107354;1264;73186;-67
2023/01/29 14:23:43;;;;;;;31.00;15.60;;;;;;;4.85;84.39;100226.05;107334;1264;71421;-66
2023/01/29 14:26:25;;;;;;;32.90;16.80;;;;;;;4.93;83.39;100227.52;107410;1269;73601;-66
2023/01/29 14:28:59;;;;;;;35.80;17.40;;;;;;;4.85;83.22;100234.77;107392;1263;62087;-66
2023/01/29 14:31:57;;;;;;;28.10;15.70;;;;;;;4.92;82.36;100226.85;107346;1263;61312;-66
2023/01/29 14:34:34;;;;;;;31.50;15.50;;;;;;;5.20;80.79;100227.71;107276;1264;71506;-66
2023/01/29 14:37:25;;;;;;;32.10;15.90;;;;;;;5.29;79.40;100232.29;107323;1264;71310;-66
2023/01/29 14:39:54;;;;;;;32.50;16.20;;;;;;;5.17;79.01;100230.01;107492;1260;74072;-66
2023/01/29 14:42:23;;;;;;;37.40;18.20;;;;;;;5.32;78.10;100232.77;107623;1260;62322;-65
2023/01/29 14:44:53;;;;;;;35.10;18.30;;;;;;;5.29;77.49;100241.51;107648;1260;61545;-65
2023/01/29 14:47:37;;;;;;;40.20;19.50;;;;;;;5.44;76.41;100242.52;107646;1259;73711;-65
2023/01/29 14:50:33;;;;;;;30.40;16.00;;;;;;;5.42;76.19;100241.67;107627;1260;71372;-66
2023/01/29 14:53:43;;;;;;;36.10;18.90;;;;;;;5.66;75.20;100241.50;107660;1260;73639;-65
2023/01/29 14:56:16;;;;;;;35.30;18.90;;;;;;;5.80;73.47;100247.39;107523;1259;60812;-66
2023/01/29 14:59:16;;;;;;;39.20;19.30;;;;;;;5.89;72.48;100242.19;107648;1260;60829;-65
2023/01/29 15:01:51;;;;;;;38.10;18.50;;;;;;;5.64;72.03;100244.66;107585;1260;71734;-65
2023/01/29 15:04:23;;;;;;;35.00;16.90;;;;;;;5.71;71.65;100247.70;107567;1260;70299;-66
2023/01/29 15:07:04;;;;;;;30.00;15.70;;;;;;;5.77;71.74;100245.52;107599;1260;72869;-66
2023/01/29 15:09:40;;;;;;;34.40;16.40;;;;;;;5.89;71.32;100244.80;107624;1260;61615;-65
2023/01/29 15:12:30;;;;;;;47.80;23.90;;;;;;;6.05;70.26;100244.38;107536;1260;61226;-66
2023/01/29 15:15:36;;;;;;;45.20;21.70;;;;;;;6.29;69.42;100248.17;107548;1260;72707;-66
2023/01/29 15:18:07;;;;;;;60.50;27.90;;;;;;;6.13;68.28;100245.14;107525;1260;71106;-65
2023/01/29 15:20:37;;;;;;;62.00;29.50;;;;;;;6.13;67.87;100243.23;107584;1260;74245;-65
2023/01/29 15:23:27;;;;;;;46.40;23.10;;;;;;;6.36;67.15;100244.91;107469;1260;60933;-65
2023/01/29 15:25:57;;;;;;;46.80;21.30;;;;;;;6.40;66.59;100244.16;107498;1261;61363;-65
2023/01/29 15:28:25;;;;;;;43.60;22.30;;;;;;;6.28;66.30;100246.27;107421;1262;71991;-66
2023/01/29 15:30:55;;;;;;;38.00;18.80;;;;;;;6.27;65.86;100251.00;107506;1262;71607;-66
2023/01/29 15:33:24;;;;;;;35.90;18.70;;;;;;;6.28;65.78;100250.64;107515;1262;73696;-66
2023/01/29 15:35:57;;;;;;;34.10;17.40;;;;;;;6.00;65.98;100254.41;107500;1262;59813;-65
2023/01/29 15:38:34;;;;;;;31.90;16.40;;;;;;;6.27;65.69;100251.70;107638;1259;61680;-66
2023/01/29 15:41:17;;;;;;;35.20;17.70;;;;;;;6.21;65.60;100251.28;107686;1263;73965;-65
2023/01/29 15:43:49;;;;;;;;;;;;;;;6.34;65.04;100249.30;107651;1259;69652;-66
2023/01/29 15:46:21;;;;;;;35.50;15.70;;;;;;;6.40;64.84;100252.34;107788;1259;73681;-65
2023/01/29 15:48:50;;;;;;;37.30;17.20;;;;;;;6.43;64.06;100251.08;107609;1259;62482;-66
2023/01/29 15:51:22;;;;;;;33.70;15.50;;;;;;;6.26;64.55;100254.33;107715;1258;61157;-66
2023/01/29 15:53:56;;;;;;;37.80;18.20;;;;;;;6.21;64.99;100256.52;107633;1259;74312;-66
2023/01/29 15:56:28;;;;;;;32.90;17.10;;;;;;;6.10;65.05;100261.03;107680;1259;71537;-66
2023/01/29 15:58:57;;;;;;;;;;;;;;;6.11;65.11;100257.73;107606;1258;73691;-65
2023/01/29 16:01:26;;;;;;;39.60;18.80;;;;;;;5.92;65.17;100257.15;107674;1262;60571;-65
2023/01/29 16:03:55;;;;;;;34.80;17.00;;;;;;;5.86;65.23;100254.79;107991;1255;60312;-65
2023/01/29 16:06:26;;;;;;;48.80;25.60;;;;;;;6.06;64.97;100256.58;108061;1258;73089;-66
2023/01/29 16:08:54;;;;;;;47.10;24.60;;;;;;;6.08;64.85;100253.76;108019;1255;69739;-66
2023/01/29 16:11:22;;;;;;;42.70;21.80;;;;;;;6.17;64.43;100248.37;107862;1256;74191;-66
2023/01/29 16:13:50;;;;;;;46.20;22.80;;;;;;;6.16;64.04;100249.79;108100;1254;61597;-66
2023/01/29 16:16:27;;;;;;;39.50;20.10;;;;;;;6.17;64.25;100250.30;108065;1254;61526;-65
2023/01/29 16:18:57;;;;;;;34.90;17.40;;;;;;;6.39;63.67;100251.84;108023;1258;74994;-66
2023/01/29 16:21:36;;;;;;;46.00;23.30;;;;;;;6.37;63.55;100252.73;107896;1254;71210;-66
2023/01/29 16:24:10;;;;;;;39.70;19.10;;;;;;;6.29;64.06;100249.57;108130;1256;73767;-66
2023/01/29 16:26:42;;;;;;;36.00;17.70;;;;;;;6.25;63.96;100254.70;108115;1254;60142;-65
2023/01/29 16:29:12;;;;;;;47.10;22.60;;;;;;;6.24;64.17;100257.85;108078;1254;60546;-66
2023/01/29 16:31:41;;;;;;;40.80;20.60;;;;;;;6.17;64.13;100257.45;108158;1258;72736;-66
2023/01/29 16:34:33;;;;;;;47.70;22.70;;;;;;;6.37;63.79;100254.66;108141;1254;71354;-66
2023/01/29 16:37:03;;;;;;;36.90;19.20;;;;;;;6.42;63.63;100257.88;108081;1256;71851;-65
2023/01/29 16:39:37;;;;;;;34.40;16.90;;;;;;;6.46;63.49;100261.65;108099;1254;61041;-66
2023/01/29 16:42:11;;;;;;;43.00;21.30;;;;;;;6.37;63.40;100260.23;108040;1254;61114;-66
2023/01/29 16:44:40;;;;;;;40.80;19.80;;;;;;;6.40;63.08;100263.32;108026;1254;74240;-65
2023/01/29 16:47:31;;;;;;;47.00;21.10;;;;;;;6.52;62.33;100261.73;108172;1254;69338;-66
2023/01/29 16:50:18;;;;;;;53.50;24.20;;;;;;;6.59;62.47;100259.14;108021;1254;70834;-65
2023/01/29 16:53:32;;;;;;;43.30;21.20;;;;;;;6.54;62.39;100261.84;108043;1254;60600;-66
2023/01/29 16:56:01;;;;;;;50.30;21.00;;;;;;;6.38;62.62;100259.36;108104;1254;61413;-66
2023/01/29 16:58:30;;;;;;;41.20;17.90;;;;;;;6.48;62.65;100259.69;108125;1254;74358;-66
2023/01/29 17:01:03;;;;;;;42.10;18.00;;;;;;;6.49;62.26;100261.59;108100;1254;70215;-65
2023/01/29 17:03:32;;;;;;;40.20;18.70;;;;;;;6.52;61.93;100263.46;108124;1254;72502;-65
2023/01/29 17:06:10;;;;;;;55.00;21.60;;;;;;;6.51;61.55;100264.01;108047;1254;62206;-66
2023/01/29 17:08:42;;;;;;;40.70;19.10;;;;;;;6.59;61.25;100264.73;108084;1254;60375;-66
2023/01/29 17:11:11;;;;;;;36.10;17.20;;;;;;;6.75;61.22;100263.55;108097;1254;74339;-66
2023/01/29 17:13:41;;;;;;;38.80;17.80;;;;;;;6.69;61.49;100266.82;108184;1254;71624;-66
2023/01/29 17:16:20;;;;;;;31.90;15.70;;;;;;;6.82;60.87;100265.70;108051;1254;72413;-66
2023/01/29 17:18:48;;;;;;;30.20;15.00;;;;;;;6.78;60.99;100262.45;108109;1254;60018;-65
2023/01/29 17:21:17;;;;;;;31.70;16.60;;;;;;;6.76;61.04;100259.86;108138;1254;61043;-66
2023/01/29 17:23:45;;;;;;;30.50;14.70;;;;;;;6.78;60.52;100252.85;108122;1256;73337;-65
2023/01/29 17:26:13;;;;;;;31.90;15.40;;;;;;;6.82;59.69;100256.79;108045;1254;70304;-65
2023/01/29 17:28:41;;;;;;;28.70;14.90;;;;;;;6.74;59.17;100254.51;108053;1255;73346;-66
2023/01/29 17:31:09;;;;;;;25.70;12.40;;;;;;;6.74;58.31;100251.36;107970;1255;62233;-66
2023/01/29 17:33:41;;;;;;;27.10;13.20;;;;;;;6.84;58.05;100250.11;108085;1255;59695;-66
2023/01/29 17:36:11;;;;;;;24.10;12.40;;;;;;;6.96;57.32;100250.59;108099;1255;72183;-65
2023/01/29 17:38:41;;;;;;;24.40;11.90;;;;;;;7.00;57.41;100244.55;108068;1255;68910;-65
2023/01/29 17:41:26;;;;;;;26.00;13.00;;;;;;;7.01;57.37;100246.10;107966;1255;73693;-66
2023/01/29 17:43:54;;;;;;;30.30;13.70;;;;;;;6.82;56.59;100245.27;108071;1255;60761;-66
2023/01/29 17:46:26;;;;;;;27.30;12.60;;;;;;;6.80;56.26;100245.83;108053;1254;60405;-66
2023/01/29 17:48:55;;;;;;;28.90;15.00;;;;;;;6.81;56.16;100243.37;107995;1256;73564;-66
2023/01/29 17:51:23;;;;;;;28.10;14.30;;;;;;;6.79;55.71;100238.52;108130;1255;71317;-65
2023/01/29 17:53:51;;;;;;;29.30;14.70;;;;;;;6.68;56.17;100234.90;107965;1254;73319;-66
2023/01/29 21:51:37;;;;;;;15.80;9.00;;;;;;;1.44;71.56;100180.17;105780;1282;613779;-65
2023/01/29 21:54:06;;;;;;;19.90;9.40;;;;;;;2.96;65.85;100171.42;107259;1264;120664;-65
2023/01/29 21:56:34;;;;;;;16.50;8.90;;;;;;;3.23;63.87;100166.58;107422;1263;59279;-65
2023/01/29 21:59:02;;;;;;;15.90;8.70;;;;;;;3.43;62.91;100164.70;107425;1267;72531;-63
2023/01/29 22:01:40;;;;;;;18.20;9.00;;;;;;;3.84;61.31;100162.45;107394;1267;70541;-62
2023/01/29 22:04:08;;;;;;;21.80;9.70;;;;;;;3.96;60.01;100157.83;107394;1268;72964;-62
2023/01/29 22:06:37;;;;;;;17.20;10.00;;;;;;;4.09;59.16;100156.32;107443;1264;60249;-64
2023/01/29 22:09:06;;;;;;;21.60;11.10;;;;;;;4.33;58.92;100161.45;107497;1268;61601;-65
2023/01/29 22:11:35;;;;;;;22.00;10.70;;;;;;;4.46;58.21;100157.12;107432;1264;71976;-65
2023/01/29 22:14:03;;;;;;;17.30;9.80;;;;;;;4.57;58.03;100156.13;107441;1263;70424;-65
2023/01/29 22:16:32;;;;;;;19.40;10.60;;;;;;;4.62;57.23;100156.77;107359;1269;73779;-64
2023/01/29 22:19:00;;;;;;;24.00;11.30;;;;;;;4.66;56.04;100157.77;107403;1264;61734;-63
2023/01/29 22:21:28;;;;;;;20.20;10.20;;;;;;;4.89;55.88;100153.98;107930;1257;61138;-65
2023/01/29 22:23:56;;;;;;;21.30;10.80;;;;;;;4.81;56.13;100153.03;107910;1258;73482;-64
2023/01/29 22:26:25;;;;;;;24.50;12.10;;;;;;;4.53;56.35;100154.10;107897;1258;71018;-64
2023/01/29 22:28:53;;;;;;;20.40;10.50;;;;;;;4.64;55.34;100157.27;107888;1262;73567;-62
2023/01/29 22:31:21;;;;;;;21.30;10.50;;;;;;;4.84;55.25;100161.55;107966;1262;61451;-64
2023/01/29 22:33:49;;;;;;;19.70;10.30;;;;;;;4.97;54.31;100156.33;107890;1257;61531;-64
2023/01/29 22:36:21;;;;;;;20.50;10.60;;;;;;;4.97;53.65;100152.83;107938;1256;72707;-62
2023/01/29 22:38:49;;;;;;;17.50;9.80;;;;;;;4.63;52.93;100152.92;107946;1256;71621;-63
2023/01/29 22:41:17;;;;;;;21.90;10.10;;;;;;;4.90;52.49;100148.06;107686;1258;72137;-62
2023/01/29 22:43:45;;;;;;;19.60;9.60;;;;;;;5.00;52.34;100149.68;107786;1258;62357;-64
2023/01/29 22:46:13;;;;;;;16.40;8.30;;;;;;;5.17;51.51;100144.73;107817;1258;59788;-63
2023/01/29 22:48:43;;;;;;;15.10;9.00;;;;;;;5.09;51.73;100140.13;107789;1257;73922;-64
2023/01/29 22:51:12;;;;;;;14.10;8.00;;;;;;;4.96;51.53;100139.98;107852;1258;71295;-63
2023/01/29 22:53:51;;;;;;;16.10;8.70;;;;;;;5.09;51.17;100138.23;107792;1257;73120;-65
2023/01/29 22:56:24;;;;;;;17.00;9.10;;;;;;;5.21;51.13;100140.66;107798;1258;62198;-64
2023/01/29 22:58:53;;;;;;;15.90;9.40;;;;;;;5.21;50.69;100137.01;107797;1262;61450;-64
2023/01/29 23:01:26;;;;;;;20.90;11.60;;;;;;;5.29;50.23;100130.45;107795;1261;73201;-64
2023/01/29 23:03:55;;;;;;;20.40;10.60;;;;;;;5.47;50.56;100127.02;107784;1257;70003;-63
2023/01/29 23:06:23;;;;;;;18.50;9.10;;;;;;;5.66;49.58;100120.09;107833;1263;72884;-64
2023/01/29 23:08:51;;;;;;;18.90;9.70;;;;;;;5.75;49.24;100114.90;107837;1261;60181;-61
2023/01/29 23:11:20;;;;;;;20.00;10.10;;;;;;;5.79;49.32;100117.08;108167;1256;61437;-64
2023/01/29 23:13:52;;;;;;;17.40;10.00;;;;;;;5.85;49.08;100111.41;108124;1254;72010;-64
2023/01/29 23:16:23;;;;;;;19.30;10.80;;;;;;;6.03;50.39;100106.04;108255;1254;70421;-61
2023/01/29 23:18:54;;;;;;;16.30;9.20;;;;;;;6.32;49.37;100103.40;108208;1254;71525;-65
2023/01/29 23:21:23;;;;;;;15.60;8.70;;;;;;;5.85;49.57;100104.43;108200;1254;62391;-63
2023/01/29 23:23:57;;;;;;;18.40;9.80;;;;;;;5.88;50.28;100096.55;108157;1254;61317;-62
2023/01/29 23:29:12;;;;;;;20.80;9.50;;;;;;;6.24;49.13;100074.09;108051;1257;71587;-63